»·PEaware :: QXE2371 KGEG-KSEA

QXE2371 :: KGEG-KSEA

FLIGHT INFORMATION

Flight Status: Arrived
Operator:
Horizon Air
More flights by this operator :: More flights under this callsign
Pilot: Henderson P. (1210)
Aircraft: DEHAVILLAND DASH 8 400
(DH8D)
More flights by this aircraft type
Origin: KGEG Spokane Intl
United States
Destination: KSEA Seattle-Tacoma Intl
United States
More flights between these airports :: More routes between these airports
Route: TEMPL GLASR1
File this flight plan on PilotEdge
Remarks:
Altitude:
(Current/Filed)
22,000ft
Speed:
(Current/Filed)
318kts
Departed: 23-Oct-18 08:05 AM
Arrived: 23-Oct-18 08:51 AM
Distance/Time
Traveled:
194nm/0:46
Distance/Time
To Go:
Arrived

Flight Plot

Page will automatically refresh every two minutes.

Flight plan parsing failed; only flown route is shown


Map Options




Map Legend


Flown Route
Filed Route
Departure Airport
Arrival Airport
Navaid (VOR, NDB)
Fix

Horizontal Profiles

Position Reports

Time Latitude Longitude Heading Altitude Ground
Speed
23-Oct-18 07:03 47.623842 -117.537329 223 2357ft 0kts
23-Oct-18 07:04 47.623842 -117.537329 223 2357ft 0kts
23-Oct-18 07:05 47.623842 -117.537329 223 2357ft 0kts
23-Oct-18 07:06 47.623842 -117.537329 223 2357ft 0kts
23-Oct-18 07:07 47.623842 -117.537329 223 2357ft 0kts
23-Oct-18 07:08 47.623842 -117.537329 223 2357ft 0kts
23-Oct-18 07:09 47.623842 -117.537329 223 2357ft 0kts
23-Oct-18 07:10 47.623842 -117.537329 223 2357ft 0kts
23-Oct-18 07:11 47.623842 -117.537329 223 2357ft 0kts
23-Oct-18 07:12 47.623842 -117.537329 223 2357ft 0kts
23-Oct-18 07:13 47.623842 -117.537329 223 2357ft 0kts
23-Oct-18 07:14 47.623842 -117.537329 223 2357ft 0kts
23-Oct-18 07:15 47.623842 -117.537329 223 2357ft 0kts
23-Oct-18 07:16 47.623842 -117.537329 223 2357ft 0kts
23-Oct-18 07:17 47.623842 -117.537329 223 2357ft 0kts
23-Oct-18 07:18 47.623842 -117.537329 223 2357ft 0kts
23-Oct-18 07:19 47.623842 -117.537329 223 2357ft 0kts
23-Oct-18 07:20 47.623842 -117.537329 223 2357ft 0kts
23-Oct-18 07:21 47.623842 -117.537329 223 2357ft 0kts
23-Oct-18 07:22 47.623842 -117.537329 223 2357ft 0kts
23-Oct-18 07:23 47.623842 -117.537329 223 2357ft 0kts
23-Oct-18 07:24 47.623842 -117.537329 223 2357ft 0kts
23-Oct-18 07:25 47.623842 -117.537329 223 2357ft 0kts
23-Oct-18 07:26 47.623842 -117.537329 223 2357ft 0kts
23-Oct-18 07:27 47.623842 -117.537329 223 2357ft 0kts
23-Oct-18 07:28 47.623842 -117.537329 223 2357ft 0kts
23-Oct-18 07:29 47.623842 -117.537329 223 2357ft 0kts
23-Oct-18 07:30 47.623842 -117.537329 223 2357ft 0kts
23-Oct-18 07:31 47.623842 -117.537329 223 2357ft 0kts
23-Oct-18 07:32 47.623842 -117.537329 223 2357ft 0kts
23-Oct-18 07:33 47.623842 -117.537329 223 2357ft 0kts
23-Oct-18 07:34 47.623842 -117.537329 223 2357ft 0kts
23-Oct-18 07:35 47.623842 -117.537329 223 2357ft 0kts
23-Oct-18 07:36 47.623842 -117.537329 223 2357ft 0kts
23-Oct-18 07:37 47.623842 -117.537329 223 2357ft 0kts
23-Oct-18 07:38 47.623842 -117.537329 223 2357ft 0kts
23-Oct-18 07:39 47.623842 -117.537329 223 2357ft 0kts
23-Oct-18 07:40 47.623842 -117.537329 223 2357ft 0kts
23-Oct-18 07:41 47.623842 -117.537329 223 2357ft 0kts
23-Oct-18 07:42 47.623842 -117.537329 223 2357ft 0kts
23-Oct-18 07:43 47.623842 -117.537329 223 2357ft 0kts
23-Oct-18 07:44 47.623842 -117.537329 223 2357ft 0kts
23-Oct-18 07:45 47.623842 -117.537329 223 2357ft 0kts
23-Oct-18 07:46 47.623842 -117.537329 223 2357ft 0kts
23-Oct-18 07:47 47.623842 -117.537329 223 2357ft 0kts
23-Oct-18 07:48 47.623842 -117.537329 223 2357ft 0kts
23-Oct-18 07:49 47.623842 -117.537329 223 2357ft 0kts
23-Oct-18 07:50 47.623842 -117.537329 223 2357ft 0kts
23-Oct-18 07:51 47.623842 -117.537329 223 2357ft 0kts
23-Oct-18 07:52 47.623842 -117.537329 223 2357ft 0kts
23-Oct-18 07:53 47.623948 -117.537182 223 2357ft 0kts
23-Oct-18 07:54 47.623948 -117.537182 223 2357ft 0kts
23-Oct-18 07:55 47.623948 -117.537182 223 2357ft 0kts
23-Oct-18 07:56 47.623789 -117.536977 128 2357ft 2kts
23-Oct-18 07:57 47.622256 -117.536945 135 2357ft 9kts
23-Oct-18 07:58 47.623881 -117.533383 45 2357ft 14kts
23-Oct-18 07:59 47.626881 -117.528912 46 2357ft 15kts
23-Oct-18 08:00 47.629854 -117.524343 44 2357ft 15kts
23-Oct-18 08:01 47.632481 -117.520309 77 2357ft 4kts
23-Oct-18 08:02 47.631933 -117.519326 135 2357ft 0kts
23-Oct-18 08:03 47.631764 -117.519078 135 2357ft 0kts
23-Oct-18 08:04 47.631757 -117.519069 135 2357ft 0kts
23-Oct-18 08:05 47.631757 -117.519069 135 2357ft 0kts
23-Oct-18 08:06 47.630430 -117.519547 226 2357ft 30kts
23-Oct-18 08:07 47.605706 -117.556354 222 3307ft 160kts
23-Oct-18 08:08 47.571001 -117.604014 220 5371ft 200kts
23-Oct-18 08:09 47.559511 -117.688350 278 7117ft 244kts
23-Oct-18 08:10 47.570063 -117.788560 277 8748ft 252kts
23-Oct-18 08:11 47.580743 -117.892045 276 10167ft 257kts
23-Oct-18 08:12 47.591513 -117.997742 275 11501ft 262kts
23-Oct-18 08:13 47.602502 -118.106561 275 12781ft 267kts
23-Oct-18 08:14 47.613296 -118.216674 275 13922ft 272kts
23-Oct-18 08:15 47.624276 -118.330042 275 14976ft 277kts
23-Oct-18 08:16 47.635366 -118.445147 275 15973ft 281kts
23-Oct-18 08:17 47.646404 -118.560848 275 16978ft 281kts
23-Oct-18 08:18 47.657321 -118.677026 275 17987ft 281kts
23-Oct-18 08:19 47.668137 -118.792292 274 18991ft 278kts
23-Oct-18 08:20 47.678652 -118.906330 274 19995ft 274kts
23-Oct-18 08:21 47.688931 -119.018888 274 20997ft 269kts
23-Oct-18 08:22 47.698839 -119.129321 274 21912ft 266kts
23-Oct-18 08:23 47.708937 -119.244329 274 22036ft 295kts
23-Oct-18 08:24 47.720010 -119.371460 274 22035ft 319kts
23-Oct-18 08:25 47.731784 -119.506772 275 22033ft 333kts
23-Oct-18 08:26 47.742887 -119.646516 274 22036ft 342kts
23-Oct-18 08:27 47.754035 -119.788732 274 22037ft 347kts
23-Oct-18 08:28 47.765069 -119.932380 274 22037ft 351kts
23-Oct-18 08:29 47.775982 -120.076729 274 22037ft 352kts
23-Oct-18 08:30 47.786845 -120.222052 274 22038ft 353kts
23-Oct-18 08:31 47.797651 -120.369360 274 22040ft 354kts
23-Oct-18 08:32 47.808050 -120.514358 273 22040ft 355kts
23-Oct-18 08:33 47.818269 -120.658645 273 22030ft 355kts
23-Oct-18 08:34 47.828614 -120.808423 273 20893ft 367kts
23-Oct-18 08:35 47.838998 -120.960360 272 19045ft 367kts
23-Oct-18 08:36 47.849051 -121.112706 272 17203ft 365kts
23-Oct-18 08:37 47.858772 -121.261648 272 15394ft 354kts
23-Oct-18 08:38 47.868115 -121.406773 272 13626ft 340kts
23-Oct-18 08:39 47.876602 -121.543780 272 11957ft 329kts
23-Oct-18 08:40 47.882572 -121.671472 257 10443ft 297kts
23-Oct-18 08:41 47.857027 -121.777916 246 8989ft 276kts
23-Oct-18 08:42 47.828800 -121.867504 236 7666ft 267kts
23-Oct-18 08:43 47.792263 -121.957397 236 6200ft 256kts
23-Oct-18 08:44 47.759655 -122.037681 236 5089ft 239kts
23-Oct-18 08:45 47.727172 -122.118370 236 5015ft 238kts
23-Oct-18 08:46 47.693164 -122.201829 236 4050ft 238kts
23-Oct-18 08:47 47.660501 -122.280101 232 3235ft 211kts
23-Oct-18 08:48 47.609556 -122.309900 179 3175ft 201kts
23-Oct-18 08:49 47.558898 -122.309686 179 2288ft 154kts
23-Oct-18 08:50 47.522455 -122.310280 178 1588ft 126kts
23-Oct-18 08:51 47.487667 -122.310539 177 903ft 120kts
23-Oct-18 08:52 47.455621 -122.310948 182 441ft 100kts
23-Oct-18 08:53 47.443669 -122.308440 119 440ft 7kts
23-Oct-18 08:54 47.443464 -122.306577 91 440ft 8kts
23-Oct-18 08:55 47.443753 -122.304761 47 440ft 0kts
23-Oct-18 08:56 47.443753 -122.304761 47 440ft 0kts
23-Oct-18 08:57 47.443753 -122.304761 47 440ft 0kts
23-Oct-18 08:58 47.443753 -122.304761 47 440ft 0kts
23-Oct-18 08:59 47.443753 -122.304761 47 440ft 0kts
23-Oct-18 09:00 47.443753 -122.304761 47 440ft 0kts
23-Oct-18 09:01 47.443753 -122.304761 47 440ft 0kts
23-Oct-18 09:02 47.443753 -122.304761 47 440ft 0kts
23-Oct-18 09:03 47.443753 -122.304761 47 440ft 0kts
23-Oct-18 09:04 47.443753 -122.304761 47 440ft 0kts

Navigation Log

Ident Type
Flight plan parsing failed, navigation log unavailable